Jerry W. Tichenor — WDB9187 — position and weather

sailwx.info

Track history (hours):
 
Tides and Currents Weather Stations Pressure Air Temp Water Temp Dewpoint Dewpoint Depression Visibility Wind Speed Wind Dir Waves Ship Positions

Jerry W. Tichenor

Owner: Blessey Enterprises, Inc., harahan, LA. More information available from US FCC via Universal Licensing System and Coast Guard Vessel Documentation Center.

Last reported at 2017-Nov-16 15:06 UTC. Time now 2017-Nov-19 12:25 UTC.
Position N 29°30' W 094°52'.

Length 92 m; draft 9.6 m.

Type: Towing. MMSI: 366971520.

Date/timePositionNaut miles runAvg speedWind from/ knotsBaromVisibWave heightAir tempDewpointWater temp
2017-Nov-16 15:06N 29°30' W 094°52'1 6.9
2017-Nov-16 15:00N 29°31' W 094°53'4 8.2
2017-Nov-16 14:30N 29°34' W 094°55'4 7.3
2017-Nov-16 14:00N 29°37' W 094°58'4 7.5
2017-Nov-16 13:30N 29°41' W 094°59'4 6.4
2017-Nov-16 12:56N 29°44' W 095°02'3 6.9
2017-Nov-16 12:25N 29°46' W 095°05'2 0.6
2017-Nov-16 09:44N 29°45' W 095°06'1 6.5
2017-Nov-16 09:30N 29°44' W 095°08'0 0.0
2017-Nov-15 18:33N 29°44' W 095°08'1 3.8
2017-Nov-15 18:15N 29°45' W 095°06'2 4.8
2017-Nov-15 17:44N 29°45' W 095°04'2 6.8
2017-Nov-15 17:26N 29°44' W 095°02'3 6.2
2017-Nov-15 16:56N 29°41' W 094°59'3 6.9
2017-Nov-15 16:30N 29°39' W 094°58'4 7.2
2017-Nov-15 16:00N 29°35' W 094°56'4 7.4
2017-Nov-15 15:30N 29°32' W 094°54'  
2017-Nov-13 02:00N 29°37' W 095°01'0 0.0
2017-Nov-13 01:30N 29°37' W 095°01'0 0.0
2017-Nov-13 01:00N 29°37' W 095°01'0 0.0
2017-Nov-13 00:30N 29°37' W 095°01'0 0.0
2017-Nov-13 00:00N 29°37' W 095°01'0 0.0
2017-Nov-12 23:30N 29°37' W 095°01'0 0.0
2017-Nov-12 23:00N 29°37' W 095°01'0 0.0
2017-Nov-12 22:30N 29°37' W 095°01'0 0.0
2017-Nov-12 22:00N 29°37' W 095°01'0 0.0
2017-Nov-12 21:30N 29°37' W 095°01'0 0.0
2017-Nov-12 21:00N 29°37' W 095°01'0 0.0
2017-Nov-12 20:30N 29°37' W 095°01'0 0.0
2017-Nov-12 20:00N 29°37' W 095°01'0 0.0
2017-Nov-12 19:30N 29°37' W 095°01'0 0.0
2017-Nov-12 19:00N 29°37' W 095°01'0 0.0
2017-Nov-12 18:30N 29°37' W 095°01'0 0.0
2017-Nov-12 18:00N 29°37' W 095°01'0 0.0
2017-Nov-12 17:30N 29°37' W 095°01'0 0.0
2017-Nov-12 17:00N 29°37' W 095°01'0 0.1
2017-Nov-12 16:30N 29°37' W 095°01'3 6.4
2017-Nov-12 16:00N 29°37' W 094°58'4 7.3
2017-Nov-12 15:30N 29°40' W 094°59'4 6.9
2017-Nov-12 14:56N 29°44' W 095°01'3 7.2
2017-Nov-12 14:29N 29°46' W 095°04'2 2.2
2017-Nov-12 13:41N 29°47' W 095°05'0 0.0
2017-Nov-12 13:05N 29°47' W 095°05'0 0.9
2017-Nov-12 12:57N 29°47' W 095°05'0 0.0
2017-Nov-12 12:05N 29°47' W 095°05'0 0.0
2017-Nov-12 12:00N 29°47' W 095°05'0 0.0
2017-Nov-12 11:30N 29°47' W 095°05'0 0.0
2017-Nov-12 09:54N 29°47' W 095°05'0 0.0
2017-Nov-12 09:24N 29°47' W 095°05'0 0.0
2017-Nov-12 08:12N 29°47' W 095°05'0 0.0
2017-Nov-12 07:47N 29°47' W 095°05'0 0.0
2017-Nov-12 05:59N 29°47' W 095°05'0 0.0
2017-Nov-12 05:16N 29°47' W 095°05'0 0.0
2017-Nov-12 05:00N 29°47' W 095°05'0 0.0
2017-Nov-12 03:28N 29°47' W 095°05'0 0.0
2017-Nov-12 02:54N 29°47' W 095°05'0 0.0
2017-Nov-12 02:27N 29°47' W 095°05'0 0.0
2017-Nov-11 20:39N 29°47' W 095°05'0 0.4
2017-Nov-11 19:56N 29°47' W 095°04'2 4.5
2017-Nov-11 19:26N 29°45' W 095°04'3 6.2
2017-Nov-11 18:55N 29°43' W 095°01'3 6.5
2017-Nov-11 18:28N 29°41' W 094°59'4 6.4
2017-Nov-11 17:54N 29°37' W 094°58'3 6.5
2017-Nov-11 17:30N 29°35' W 094°56'3 6.5
2017-Nov-11 17:00N 29°32' W 094°54'2 0.0
2017-Nov-09 19:36N 29°31' W 094°53'1 7.6
2017-Nov-09 19:30N 29°31' W 094°53'4 7.4
2017-Nov-09 19:00N 29°34' W 094°56'4 7.3
2017-Nov-09 18:30N 29°38' W 094°58'4 7.5
2017-Nov-09 18:00N 29°41' W 094°59'4 6.8
2017-Nov-09 17:27N 29°44' W 095°02'3 0.8
2017-Nov-09 13:16N 29°45' W 095°06'2 4.0
2017-Nov-09 12:52N 29°44' W 095°08'2 5.5
2017-Nov-09 12:26N 29°45' W 095°06'2 4.5
2017-Nov-09 11:59N 29°44' W 095°04'3 5.6
2017-Nov-09 11:30N 29°43' W 095°01'3 5.9
2017-Nov-09 11:00N 29°41' W 094°59'4 7.0
2017-Nov-09 10:27N 29°37' W 094°57'3 6.9
2017-Nov-09 10:00N 29°34' W 094°55'3 6.7
2017-Nov-09 09:30N 29°32' W 094°53'3 0.1
2017-Nov-07 09:27N 29°29' W 094°52'3 6.9
2017-Nov-07 09:00N 29°32' W 094°53'3 6.7
2017-Nov-07 08:30N 29°34' W 094°56'3 6.9
2017-Nov-07 08:00N 29°37' W 094°58'3 7.0
2017-Nov-07 07:30N 29°41' W 094°59'4 6.6
2017-Nov-07 06:56N 29°44' W 095°01'3 6.5
2017-Nov-07 06:26N 29°46' W 095°04'  
Track history (hours):
 
Tides and Currents Weather Stations Pressure Air Temp Water Temp Dewpoint Dewpoint Depression Visibility Wind Speed Wind Dir Waves Ship Positions

Jerry W. Tichenor

Owner: Blessey Enterprises, Inc., harahan, LA. More information available from US FCC via Universal Licensing System and Coast Guard Vessel Documentation Center.

Last reported at 2017-Nov-16 15:06 UTC. Time now 2017-Nov-19 12:25 UTC.
Position N 29°30' W 094°52'.

Length 92 m; draft 9.6 m.

Type: Towing. MMSI: 366971520.

Date/timePositionNaut miles runAvg speedWind from/ knotsBaromVisibWave heightAir tempDewpointWater temp
2017-Nov-16 15:06N 29°30' W 094°52'1 6.9
2017-Nov-16 15:00N 29°31' W 094°53'4 8.2
2017-Nov-16 14:30N 29°34' W 094°55'4 7.3
2017-Nov-16 14:00N 29°37' W 094°58'4 7.5
2017-Nov-16 13:30N 29°41' W 094°59'4 6.4
2017-Nov-16 12:56N 29°44' W 095°02'3 6.9
2017-Nov-16 12:25N 29°46' W 095°05'2 0.6
2017-Nov-16 09:44N 29°45' W 095°06'1 6.5
2017-Nov-16 09:30N 29°44' W 095°08'0 0.0
2017-Nov-15 18:33N 29°44' W 095°08'1 3.8
2017-Nov-15 18:15N 29°45' W 095°06'2 4.8
2017-Nov-15 17:44N 29°45' W 095°04'2 6.8
2017-Nov-15 17:26N 29°44' W 095°02'3 6.2
2017-Nov-15 16:56N 29°41' W 094°59'3 6.9
2017-Nov-15 16:30N 29°39' W 094°58'4 7.2
2017-Nov-15 16:00N 29°35' W 094°56'4 7.4
2017-Nov-15 15:30N 29°32' W 094°54'  
2017-Nov-13 02:00N 29°37' W 095°01'0 0.0
2017-Nov-13 01:30N 29°37' W 095°01'0 0.0
2017-Nov-13 01:00N 29°37' W 095°01'0 0.0
2017-Nov-13 00:30N 29°37' W 095°01'0 0.0
2017-Nov-13 00:00N 29°37' W 095°01'0 0.0
2017-Nov-12 23:30N 29°37' W 095°01'0 0.0
2017-Nov-12 23:00N 29°37' W 095°01'0 0.0
2017-Nov-12 22:30N 29°37' W 095°01'0 0.0
2017-Nov-12 22:00N 29°37' W 095°01'0 0.0
2017-Nov-12 21:30N 29°37' W 095°01'0 0.0
2017-Nov-12 21:00N 29°37' W 095°01'0 0.0
2017-Nov-12 20:30N 29°37' W 095°01'0 0.0
2017-Nov-12 20:00N 29°37' W 095°01'0 0.0
2017-Nov-12 19:30N 29°37' W 095°01'0 0.0
2017-Nov-12 19:00N 29°37' W 095°01'0 0.0
2017-Nov-12 18:30N 29°37' W 095°01'0 0.0
2017-Nov-12 18:00N 29°37' W 095°01'0 0.0
2017-Nov-12 17:30N 29°37' W 095°01'0 0.0
2017-Nov-12 17:00N 29°37' W 095°01'0 0.1
2017-Nov-12 16:30N 29°37' W 095°01'3 6.4
2017-Nov-12 16:00N 29°37' W 094°58'4 7.3
2017-Nov-12 15:30N 29°40' W 094°59'4 6.9
2017-Nov-12 14:56N 29°44' W 095°01'3 7.2
2017-Nov-12 14:29N 29°46' W 095°04'2 2.2
2017-Nov-12 13:41N 29°47' W 095°05'0 0.0
2017-Nov-12 13:05N 29°47' W 095°05'0 0.9
2017-Nov-12 12:57N 29°47' W 095°05'0 0.0
2017-Nov-12 12:05N 29°47' W 095°05'0 0.0
2017-Nov-12 12:00N 29°47' W 095°05'0 0.0
2017-Nov-12 11:30N 29°47' W 095°05'0 0.0
2017-Nov-12 09:54N 29°47' W 095°05'0 0.0
2017-Nov-12 09:24N 29°47' W 095°05'0 0.0
2017-Nov-12 08:12N 29°47' W 095°05'0 0.0
2017-Nov-12 07:47N 29°47' W 095°05'0 0.0
2017-Nov-12 05:59N 29°47' W 095°05'0 0.0
2017-Nov-12 05:16N 29°47' W 095°05'0 0.0
2017-Nov-12 05:00N 29°47' W 095°05'0 0.0
2017-Nov-12 03:28N 29°47' W 095°05'0 0.0
2017-Nov-12 02:54N 29°47' W 095°05'0 0.0
2017-Nov-12 02:27N 29°47' W 095°05'0 0.0
2017-Nov-11 20:39N 29°47' W 095°05'0 0.4
2017-Nov-11 19:56N 29°47' W 095°04'2 4.5
2017-Nov-11 19:26N 29°45' W 095°04'3 6.2
2017-Nov-11 18:55N 29°43' W 095°01'3 6.5
2017-Nov-11 18:28N 29°41' W 094°59'4 6.4
2017-Nov-11 17:54N 29°37' W 094°58'3 6.5
2017-Nov-11 17:30N 29°35' W 094°56'3 6.5
2017-Nov-11 17:00N 29°32' W 094°54'2 0.0
2017-Nov-09 19:36N 29°31' W 094°53'1 7.6
2017-Nov-09 19:30N 29°31' W 094°53'4 7.4
2017-Nov-09 19:00N 29°34' W 094°56'4 7.3
2017-Nov-09 18:30N 29°38' W 094°58'4 7.5
2017-Nov-09 18:00N 29°41' W 094°59'4 6.8
2017-Nov-09 17:27N 29°44' W 095°02'3 0.8
2017-Nov-09 13:16N 29°45' W 095°06'2 4.0
2017-Nov-09 12:52N 29°44' W 095°08'2 5.5
2017-Nov-09 12:26N 29°45' W 095°06'2 4.5
2017-Nov-09 11:59N 29°44' W 095°04'3 5.6
2017-Nov-09 11:30N 29°43' W 095°01'3 5.9
2017-Nov-09 11:00N 29°41' W 094°59'4 7.0
2017-Nov-09 10:27N 29°37' W 094°57'3 6.9
2017-Nov-09 10:00N 29°34' W 094°55'3 6.7
2017-Nov-09 09:30N 29°32' W 094°53'3 0.1
2017-Nov-07 09:27N 29°29' W 094°52'3 6.9
2017-Nov-07 09:00N 29°32' W 094°53'3 6.7
2017-Nov-07 08:30N 29°34' W 094°56'3 6.9
2017-Nov-07 08:00N 29°37' W 094°58'3 7.0
2017-Nov-07 07:30N 29°41' W 094°59'4 6.6
2017-Nov-07 06:56N 29°44' W 095°01'3 6.5
2017-Nov-07 06:26N 29°46' W 095°04'  

Dump ship's entire track history